createdAt,value
2023-01-23T00:01:36.206Z,4.72
2023-01-23T00:04:06.251Z,4.32
2023-01-23T00:06:34.204Z,4.80
2023-01-23T00:09:02.308Z,5.07
2023-01-23T00:11:32.180Z,4.53
2023-01-23T00:14:01.693Z,5.30
2023-01-23T00:16:32.543Z,4.57
2023-01-23T00:19:00.727Z,4.95
2023-01-23T00:21:31.275Z,3.80
2023-01-23T00:24:01.497Z,4.78
2023-01-23T00:26:32.761Z,4.70
2023-01-23T00:29:00.905Z,4.35
2023-01-23T00:31:30.885Z,5.35
2023-01-23T00:34:01.710Z,4.35
2023-01-23T00:36:32.841Z,4.22
2023-01-23T00:39:01.212Z,4.53
2023-01-23T00:41:29.260Z,3.97
2023-01-23T00:43:57.443Z,4.20
2023-01-23T00:46:25.672Z,5.00
2023-01-23T00:48:53.629Z,4.28
2023-01-23T00:51:22.123Z,4.35
2023-01-23T00:53:51.570Z,4.10
2023-01-23T00:56:19.605Z,4.05
2023-01-23T00:58:48.524Z,4.35
2023-01-23T01:01:17.492Z,3.70
2023-01-23T01:03:46.443Z,3.92
2023-01-23T01:06:16.458Z,4.35
2023-01-23T01:08:44.546Z,4.28
2023-01-23T01:11:14.264Z,4.10
2023-01-23T01:13:43.079Z,4.13
2023-01-23T01:16:11.498Z,3.65
2023-01-23T01:18:40.239Z,3.50
2023-01-23T01:21:09.639Z,4.00
2023-01-23T01:23:38.555Z,4.68
2023-01-23T01:26:08.139Z,4.15
2023-01-23T01:28:39.370Z,3.80
2023-01-23T01:31:09.689Z,4.85
2023-01-23T01:33:38.494Z,3.70
2023-01-23T01:36:10.190Z,4.03
2023-01-23T01:38:38.570Z,3.90
2023-01-23T01:41:07.456Z,4.10
2023-01-23T01:43:37.572Z,3.58
2023-01-23T01:46:16.982Z,4.25
2023-01-23T01:48:49.330Z,3.97
2023-01-23T01:51:22.661Z,3.92
2023-01-23T01:53:54.966Z,4.07
2023-01-23T01:56:23.762Z,3.72
2023-01-23T01:58:54.724Z,3.90
2023-01-23T02:01:22.777Z,4.15
2023-01-23T02:03:52.766Z,3.97
2023-01-23T02:06:21.142Z,4.68
2023-01-23T02:08:57.027Z,3.58
2023-01-23T02:11:25.409Z,3.70
2023-01-23T02:13:56.746Z,4.53
2023-01-23T02:16:29.196Z,4.78
2023-01-23T02:19:01.915Z,4.17
2023-01-23T02:21:30.322Z,4.35
2023-01-23T02:24:12.996Z,4.60
2023-01-23T02:26:44.366Z,3.92
2023-01-23T02:29:14.812Z,4.32
2023-01-23T02:31:53.075Z,3.95
2023-01-23T02:34:22.806Z,3.95
2023-01-23T02:36:51.945Z,3.92
2023-01-23T02:39:21.625Z,4.10
2023-01-23T02:44:35.265Z,4.45
2023-01-23T02:47:11.745Z,4.10
2023-01-23T02:49:39.906Z,4.00
2023-01-23T02:52:09.735Z,4.50
2023-01-23T02:54:39.641Z,4.25
2023-01-23T02:57:09.962Z,4.35
2023-01-23T02:59:57.311Z,4.40
2023-01-23T03:02:27.043Z,4.15
2023-01-23T03:04:55.236Z,4.20
2023-01-23T03:07:23.511Z,4.60
2023-01-23T03:09:52.089Z,3.90
2023-01-23T03:12:21.966Z,4.13
2023-01-23T03:14:54.324Z,3.67
2023-01-23T03:17:23.207Z,3.97
2023-01-23T03:19:51.170Z,3.90
2023-01-23T03:22:19.155Z,3.45
2023-01-23T03:24:47.298Z,3.90
2023-01-23T03:27:15.236Z,4.40
2023-01-23T03:30:06.580Z,3.92
2023-01-23T03:32:34.774Z,4.00
2023-01-23T03:35:03.198Z,3.88
2023-01-23T03:37:31.290Z,3.83
2023-01-23T03:40:17.759Z,3.47
2023-01-23T03:42:45.911Z,3.85
2023-01-23T03:45:18.971Z,4.05
2023-01-23T03:47:47.294Z,4.72
2023-01-23T03:50:16.642Z,4.43
2023-01-23T03:52:45.906Z,4.22
2023-01-23T03:55:15.494Z,4.15
2023-01-23T03:57:45.145Z,3.75
2023-01-23T04:00:21.359Z,3.65
2023-01-23T04:02:56.980Z,4.35
2023-01-23T04:05:25.065Z,3.72
2023-01-23T04:07:53.020Z,4.22
2023-01-23T04:10:21.690Z,4.00
2023-01-23T04:12:54.860Z,3.50
2023-01-23T04:15:24.881Z,3.65
2023-01-23T04:17:57.225Z,3.95
2023-01-23T04:20:27.060Z,3.65
2023-01-23T04:22:56.852Z,4.18
2023-01-23T04:25:25.319Z,3.55
2023-01-23T04:27:53.878Z,3.60
2023-01-23T04:30:22.572Z,3.92
2023-01-23T04:32:52.336Z,3.88
2023-01-23T04:35:21.422Z,3.88
2023-01-23T04:37:49.408Z,3.85
2023-01-23T04:40:20.073Z,3.90
2023-01-23T04:42:55.240Z,4.03
2023-01-23T04:45:35.780Z,3.92
2023-01-23T04:48:20.216Z,4.45
2023-01-23T04:50:49.905Z,3.85
2023-01-23T04:53:18.252Z,4.10
2023-01-23T04:55:49.328Z,4.00
2023-01-23T04:58:20.248Z,4.57
2023-01-23T05:00:49.047Z,4.55
2023-01-23T05:03:20.183Z,4.43
2023-01-23T05:05:49.552Z,4.18
2023-01-23T05:08:17.610Z,4.65
2023-01-23T05:10:52.538Z,5.15
2023-01-23T05:13:21.894Z,5.03
2023-01-23T05:15:50.211Z,5.25
2023-01-23T05:18:20.566Z,5.00
2023-01-23T05:20:49.452Z,4.88
2023-01-23T05:23:17.474Z,5.25
2023-01-23T05:25:52.264Z,5.63
2023-01-23T05:28:20.927Z,5.45
2023-01-23T05:30:53.570Z,5.38
2023-01-23T05:33:30.299Z,4.82
2023-01-23T05:36:00.400Z,5.22
2023-01-23T05:38:28.903Z,4.78
2023-01-23T05:40:57.116Z,5.78
2023-01-23T05:43:44.413Z,4.85
2023-01-23T05:49:07.261Z,5.28
2023-01-23T05:51:35.580Z,5.07
2023-01-23T05:54:04.589Z,5.45
2023-01-23T05:56:34.589Z,4.95
2023-01-23T05:59:21.280Z,4.57
2023-01-23T06:02:15.579Z,4.32
2023-01-23T06:05:04.185Z,5.30
2023-01-23T06:08:01.808Z,4.15
2023-01-23T06:10:31.076Z,4.70
2023-01-23T06:12:59.152Z,4.70
2023-01-23T06:15:27.127Z,5.10
2023-01-23T06:17:56.423Z,5.72
2023-01-23T06:20:27.883Z,4.53
2023-01-23T06:22:55.947Z,4.82
2023-01-23T06:25:24.931Z,5.18
2023-01-23T06:27:55.198Z,5.15
2023-01-23T06:30:25.403Z,5.32
2023-01-23T06:32:53.712Z,6.43
2023-01-23T06:35:29.977Z,5.63
2023-01-23T06:37:58.571Z,5.53
2023-01-23T06:40:27.125Z,5.53
2023-01-23T06:43:13.833Z,5.38
2023-01-23T06:45:45.373Z,5.13
2023-01-23T06:48:14.469Z,6.30
2023-01-23T06:50:45.497Z,5.82
2023-01-23T06:53:15.913Z,5.80
2023-01-23T06:55:45.939Z,6.18
2023-01-23T06:58:16.084Z,6.60
2023-01-23T07:00:45.919Z,6.13
2023-01-23T07:03:32.062Z,6.20
2023-01-23T07:06:07.091Z,6.60
2023-01-23T07:08:35.910Z,6.18
2023-01-23T07:11:05.001Z,6.43
2023-01-23T07:13:33.370Z,6.75
2023-01-23T07:16:01.827Z,6.25
2023-01-23T07:18:30.549Z,6.97
2023-01-23T07:20:59.312Z,7.20
2023-01-23T07:23:28.733Z,7.22
2023-01-23T07:26:00.649Z,7.97
2023-01-23T07:28:28.730Z,8.27
2023-01-23T07:30:59.179Z,8.68
2023-01-23T07:33:27.523Z,7.50
2023-01-23T07:35:56.584Z,7.85
2023-01-23T07:38:25.468Z,8.80
2023-01-23T07:41:00.175Z,8.18
2023-01-23T07:43:28.734Z,8.43
2023-01-23T07:45:59.824Z,8.38
2023-01-23T07:48:28.264Z,8.07
2023-01-23T07:50:56.817Z,8.35
2023-01-23T07:53:24.987Z,7.57
2023-01-23T07:55:54.863Z,8.15
2023-01-23T07:58:23.672Z,7.95
2023-01-23T08:00:52.221Z,8.95
2023-01-23T08:03:21.060Z,8.05
2023-01-23T08:05:52.592Z,7.90
2023-01-23T08:08:21.819Z,9.10
2023-01-23T08:10:51.064Z,8.30
2023-01-23T08:13:28.388Z,8.18
2023-01-23T08:16:04.344Z,8.05
2023-01-23T08:18:33.198Z,7.70
2023-01-23T08:21:03.191Z,8.48
2023-01-23T08:23:32.700Z,7.57
2023-01-23T08:26:03.370Z,8.07
2023-01-23T08:28:33.370Z,7.40
2023-01-23T08:31:02.932Z,7.95
2023-01-23T08:33:33.229Z,7.40
2023-01-23T08:36:02.271Z,7.00
2023-01-23T08:38:31.765Z,7.55
2023-01-23T08:41:03.361Z,5.78
2023-01-23T08:43:34.006Z,7.30
2023-01-23T08:46:03.152Z,5.97
2023-01-23T08:48:33.195Z,6.80
2023-01-23T08:51:04.112Z,5.57
2023-01-23T08:53:32.997Z,6.15
2023-01-23T08:56:02.272Z,5.78
2023-01-23T08:58:32.342Z,5.65
2023-01-23T09:01:02.058Z,5.80
2023-01-23T09:03:30.183Z,5.35
2023-01-23T09:06:02.457Z,5.32
2023-01-23T09:08:30.691Z,5.20
2023-01-23T09:11:02.649Z,5.47
2023-01-23T09:13:32.357Z,5.30
2023-01-23T09:16:01.158Z,5.03
2023-01-23T09:18:30.233Z,4.82
2023-01-23T09:21:00.051Z,4.38
2023-01-23T09:23:28.390Z,4.88
2023-01-23T09:26:04.762Z,4.90
2023-01-23T09:28:34.526Z,5.13
2023-01-23T09:31:07.448Z,4.18
2023-01-23T09:33:35.636Z,4.50
2023-01-23T09:36:04.444Z,4.30
2023-01-23T09:38:34.459Z,4.00
2023-01-23T09:41:10.337Z,3.90
2023-01-23T09:43:46.080Z,4.13
2023-01-23T09:46:20.233Z,5.20
2023-01-23T09:48:52.176Z,5.03
2023-01-23T09:51:26.817Z,4.40
2023-01-23T09:53:59.615Z,4.30
2023-01-23T09:56:35.388Z,4.85
2023-01-23T09:59:14.494Z,4.80
2023-01-23T10:01:43.210Z,5.28
2023-01-23T10:04:13.523Z,4.95
2023-01-23T10:07:02.484Z,5.15
2023-01-23T10:09:43.977Z,5.68
2023-01-23T10:12:25.609Z,4.78
2023-01-23T10:15:09.314Z,6.18
2023-01-23T10:17:45.366Z,6.40
2023-01-23T10:20:45.927Z,7.00
2023-01-23T10:23:30.656Z,8.15
2023-01-23T10:26:00.105Z,6.72
2023-01-23T10:28:35.011Z,7.15
2023-01-23T10:31:11.496Z,5.80
2023-01-23T10:33:46.771Z,5.78
2023-01-23T10:36:24.041Z,5.40
2023-01-23T10:38:59.811Z,5.97
2023-01-23T10:41:28.443Z,5.75
2023-01-23T10:43:59.781Z,6.13
2023-01-23T10:46:35.745Z,7.20
2023-01-23T10:49:05.375Z,7.35
2023-01-23T10:51:48.620Z,6.55
2023-01-23T10:54:31.697Z,7.30
2023-01-23T10:57:03.491Z,6.63
2023-01-23T10:59:35.892Z,8.20
2023-01-23T11:02:22.703Z,7.57
2023-01-23T11:04:52.969Z,7.88
2023-01-23T11:07:24.102Z,7.70
2023-01-23T11:09:55.778Z,8.18
2023-01-23T11:12:25.901Z,8.57
2023-01-23T11:15:13.669Z,8.23
2023-01-23T11:17:44.275Z,7.80
2023-01-23T11:20:26.061Z,8.40
2023-01-23T11:23:06.544Z,8.25
2023-01-23T11:25:39.173Z,7.40
2023-01-23T11:28:23.749Z,8.65
2023-01-23T11:31:12.327Z,7.57
2023-01-23T11:33:52.600Z,9.65
2023-01-23T11:36:39.642Z,8.27
2023-01-23T11:39:20.068Z,8.23
2023-01-23T11:41:48.882Z,8.05
2023-01-23T11:44:21.116Z,9.00
2023-01-23T11:47:18.049Z,8.27
2023-01-23T11:50:13.861Z,9.27
2023-01-23T11:52:50.608Z,8.40
2023-01-23T11:55:35.538Z,7.88
2023-01-23T11:58:17.334Z,8.63
2023-01-23T12:00:50.028Z,7.82
2023-01-23T12:04:06.185Z,8.38
2023-01-23T12:07:03.674Z,8.50
2023-01-23T12:09:39.474Z,6.55
2023-01-23T12:12:21.178Z,6.90
2023-01-23T12:15:01.482Z,7.03
2023-01-23T12:17:40.320Z,5.47
2023-01-23T12:20:27.187Z,5.43
2023-01-23T12:23:16.706Z,6.00
2023-01-23T12:25:53.355Z,6.03
2023-01-23T12:28:40.791Z,7.80
2023-01-23T12:31:24.702Z,7.38
2023-01-23T12:34:10.667Z,6.95
2023-01-23T12:37:11.752Z,7.60
2023-01-23T12:40:00.737Z,6.72
2023-01-23T12:42:33.387Z,7.18
2023-01-23T12:45:14.552Z,6.68
2023-01-23T12:47:49.678Z,6.05
2023-01-23T12:50:22.640Z,4.60
2023-01-23T12:52:54.107Z,4.88
2023-01-23T12:55:27.098Z,5.85
2023-01-23T12:58:08.009Z,6.53
2023-01-23T13:00:47.585Z,6.03
2023-01-23T13:03:46.030Z,6.63
2023-01-23T13:06:30.935Z,6.43
2023-01-23T13:09:12.952Z,6.50
2023-01-23T13:11:59.818Z,6.20
2023-01-23T13:15:03.511Z,4.95
2023-01-23T13:17:37.775Z,4.47
2023-01-23T13:20:43.001Z,4.53
2023-01-23T13:23:31.614Z,5.70
2023-01-23T13:26:32.842Z,5.05
2023-01-23T13:29:07.737Z,6.20
2023-01-23T13:31:45.261Z,6.40
2023-01-23T13:34:43.594Z,6.15
2023-01-23T13:37:51.229Z,5.43
2023-01-23T13:40:26.623Z,6.35
2023-01-23T13:42:55.550Z,5.80
2023-01-23T13:45:29.116Z,5.60
2023-01-23T14:24:45.057Z,6.63
2023-01-23T14:27:28.890Z,7.70
2023-01-23T14:29:59.545Z,6.95
2023-01-23T14:32:31.090Z,7.43
2023-01-23T14:35:01.575Z,7.65
2023-01-23T14:37:31.774Z,7.57
2023-01-23T14:40:11.641Z,7.50
2023-01-23T14:42:41.580Z,7.63
2023-01-23T14:45:15.352Z,7.65
2023-01-23T14:47:48.914Z,7.15
2023-01-23T14:50:25.777Z,7.28
2023-01-23T14:52:59.688Z,8.83
2023-01-23T14:55:30.476Z,7.97
2023-01-23T14:58:02.015Z,7.55
2023-01-23T15:00:31.554Z,6.53
2023-01-23T15:02:59.585Z,5.75
2023-01-23T15:05:29.581Z,6.60
2023-01-23T15:07:59.271Z,6.68
2023-01-23T15:10:30.122Z,6.53
2023-01-23T15:13:02.138Z,6.20
2023-01-23T15:15:33.521Z,5.53
2023-01-23T15:18:03.547Z,6.03
2023-01-23T15:20:38.449Z,5.80
2023-01-23T15:23:28.234Z,6.43
2023-01-23T15:26:24.706Z,6.57
2023-01-23T15:28:55.191Z,8.52
2023-01-23T15:31:30.264Z,7.80
2023-01-23T15:34:18.240Z,7.45
2023-01-23T15:36:53.675Z,7.57
2023-01-23T15:39:24.952Z,7.18
2023-01-23T15:41:54.291Z,7.60
2023-01-23T15:44:26.411Z,8.55
2023-01-23T15:46:56.693Z,7.68
2023-01-23T15:49:26.498Z,7.03
2023-01-23T15:51:58.378Z,7.13
2023-01-23T15:54:33.236Z,6.80
2023-01-23T15:57:09.299Z,7.32
2023-01-23T15:59:38.339Z,7.03
2023-01-23T16:02:12.850Z,7.25
2023-01-23T16:04:43.777Z,7.28
2023-01-23T16:07:23.965Z,6.97
2023-01-23T16:09:55.071Z,6.53
2023-01-23T16:12:28.733Z,7.35
2023-01-23T16:14:56.934Z,6.50
2023-01-23T16:17:25.338Z,6.72
2023-01-23T16:19:54.395Z,7.07
2023-01-23T16:22:29.362Z,7.65
2023-01-23T16:24:58.788Z,6.90
2023-01-23T16:27:28.501Z,7.43
2023-01-23T16:29:57.406Z,6.65
2023-01-23T16:32:26.081Z,7.03
2023-01-23T16:34:54.636Z,7.43
2023-01-23T16:37:23.060Z,6.70
2023-01-23T16:39:52.792Z,6.88
2023-01-23T16:42:23.669Z,7.43
2023-01-23T16:44:52.153Z,7.53
2023-01-23T16:47:20.277Z,7.30
2023-01-23T16:49:53.548Z,7.10
2023-01-23T16:52:26.910Z,8.35
2023-01-23T16:54:56.436Z,7.78
2023-01-23T16:57:26.582Z,8.80
2023-01-23T16:59:56.357Z,7.63
2023-01-23T17:02:32.173Z,7.88
2023-01-23T17:05:00.308Z,7.80
2023-01-23T17:07:28.232Z,7.03
2023-01-23T17:09:58.404Z,7.72
2023-01-23T17:12:29.552Z,8.00
2023-01-23T17:14:58.395Z,7.60
2023-01-23T17:17:33.299Z,8.40
2023-01-23T17:20:02.806Z,8.80
2023-01-23T17:22:35.854Z,8.55
2023-01-23T17:25:07.860Z,7.45
2023-01-23T17:27:44.557Z,8.50
2023-01-23T17:30:18.687Z,7.82
2023-01-23T17:32:49.830Z,8.80
2023-01-23T17:35:23.031Z,7.60
2023-01-23T17:40:22.268Z,8.80
2023-01-23T17:42:50.919Z,8.65
2023-01-23T17:45:22.395Z,8.52
2023-01-23T17:47:52.388Z,8.27
2023-01-23T17:50:23.059Z,8.02
2023-01-23T17:52:52.736Z,7.72
2023-01-23T17:55:25.532Z,7.97
2023-01-23T17:57:53.709Z,8.10
2023-01-23T18:00:22.824Z,8.02
2023-01-23T18:02:57.204Z,7.65
2023-01-23T18:05:27.086Z,8.48
2023-01-23T18:07:55.734Z,7.88
2023-01-23T18:10:29.771Z,8.30
2023-01-23T18:13:10.161Z,7.60
2023-01-23T18:15:44.130Z,8.13
2023-01-23T18:18:23.925Z,7.35
2023-01-23T18:20:54.677Z,7.97
2023-01-23T18:23:24.130Z,6.72
2023-01-23T18:26:02.206Z,7.57
2023-01-23T18:28:40.707Z,7.60
2023-01-23T18:31:14.883Z,7.15
2023-01-23T18:34:05.944Z,7.43
2023-01-23T18:36:46.475Z,7.32
2023-01-23T18:39:48.607Z,6.85
2023-01-23T18:42:23.270Z,7.30
2023-01-23T18:44:57.043Z,6.88
2023-01-23T18:47:25.878Z,7.32
2023-01-23T18:49:54.663Z,7.65
2023-01-23T18:52:28.285Z,6.25
2023-01-23T18:55:07.118Z,6.57
2023-01-23T18:57:51.618Z,6.72
2023-01-23T19:00:25.099Z,6.80
2023-01-23T19:03:02.035Z,7.00
2023-01-23T19:05:33.558Z,7.72
2023-01-23T19:08:03.195Z,7.22
2023-01-23T19:10:47.934Z,6.85
2023-01-23T19:13:22.953Z,6.20
2023-01-23T19:16:03.062Z,6.80
2023-01-23T19:18:44.196Z,6.38
2023-01-23T19:21:17.022Z,8.27
2023-01-23T19:23:51.769Z,7.10
2023-01-23T19:26:20.461Z,7.15
2023-01-23T19:28:51.716Z,7.15
2023-01-23T19:31:25.030Z,6.70
2023-01-23T19:33:53.684Z,7.28
2023-01-23T19:36:22.878Z,6.45
2023-01-23T19:38:52.624Z,6.25
2023-01-23T19:41:22.628Z,6.75
2023-01-23T19:43:53.596Z,6.53
2023-01-23T19:46:24.527Z,6.63
2023-01-23T19:48:53.122Z,6.38
2023-01-23T19:51:24.255Z,6.13
2023-01-23T19:53:54.675Z,6.40
2023-01-23T19:56:26.970Z,6.28
2023-01-23T19:59:01.200Z,6.72
2023-01-23T20:06:34.502Z,6.88
2023-01-23T20:09:03.832Z,6.57
2023-01-23T20:11:31.966Z,6.70
2023-01-23T20:14:01.404Z,6.70
2023-01-23T20:16:29.884Z,7.15
2023-01-23T20:18:58.063Z,6.60
2023-01-23T20:21:27.191Z,7.18
2023-01-23T20:23:55.364Z,6.95
2023-01-23T20:26:24.829Z,6.68
2023-01-23T20:28:54.349Z,7.00
2023-01-23T20:31:25.255Z,7.63
2023-01-23T20:33:54.926Z,7.55
2023-01-23T20:36:23.535Z,7.00
2023-01-23T20:38:52.061Z,7.50
2023-01-23T20:41:21.918Z,8.48
2023-01-23T20:43:50.878Z,8.57
2023-01-23T20:46:20.361Z,8.18
2023-01-23T20:48:50.000Z,8.45
2023-01-23T20:51:18.270Z,9.18
2023-01-23T20:53:47.206Z,9.27
2023-01-23T20:56:17.291Z,10.15
2023-01-23T20:59:04.661Z,10.45
2023-01-23T21:01:54.723Z,10.38
2023-01-23T21:04:27.021Z,10.15
2023-01-23T21:06:55.574Z,10.40
2023-01-23T21:09:24.579Z,10.38
2023-01-23T21:11:53.996Z,10.23
2023-01-23T21:14:23.765Z,10.00
2023-01-23T21:16:51.925Z,11.65
2023-01-23T21:19:24.102Z,11.18
2023-01-23T21:21:52.510Z,10.63
2023-01-23T21:24:22.001Z,11.57
2023-01-23T21:26:51.103Z,10.52
2023-01-23T21:29:19.640Z,10.25
2023-01-23T21:31:47.810Z,10.70
2023-01-23T21:34:15.919Z,11.13
2023-01-23T21:36:45.397Z,11.75
2023-01-23T21:39:15.508Z,10.32
2023-01-23T21:41:43.651Z,10.82
2023-01-23T21:44:12.824Z,10.85
2023-01-23T21:46:41.121Z,11.80
2023-01-23T21:49:09.462Z,12.13
2023-01-23T21:51:37.843Z,11.32
2023-01-23T21:54:07.463Z,11.57
2023-01-23T21:56:35.550Z,11.80
2023-01-23T21:59:03.837Z,10.95
2023-01-23T22:01:36.074Z,13.13
2023-01-23T22:04:06.863Z,12.90
2023-01-23T22:06:36.598Z,12.32
2023-01-23T22:09:08.461Z,12.38
2023-01-23T22:11:37.300Z,13.38
2023-01-23T22:14:05.705Z,12.40
2023-01-23T22:16:48.116Z,12.32
2023-01-23T22:19:19.187Z,11.63
2023-01-23T22:21:47.359Z,12.68
2023-01-23T22:24:16.820Z,12.60
2023-01-23T22:26:45.244Z,11.73
2023-01-23T22:29:13.899Z,10.40
2023-01-23T22:31:42.583Z,11.35
2023-01-23T22:34:10.860Z,11.10
2023-01-23T22:36:38.972Z,10.45
2023-01-23T22:39:07.190Z,11.40
2023-01-23T22:41:36.637Z,11.13
2023-01-23T22:44:05.356Z,10.90
2023-01-23T22:46:33.338Z,10.07
2023-01-23T22:49:01.487Z,10.77
2023-01-23T22:51:30.013Z,10.85
2023-01-23T22:53:59.285Z,10.98
2023-01-23T22:56:28.351Z,11.35
2023-01-23T22:58:57.741Z,10.90
2023-01-23T23:01:27.249Z,11.25
2023-01-23T23:03:57.134Z,11.25
2023-01-23T23:06:25.694Z,11.68
2023-01-23T23:08:53.584Z,11.63
2023-01-23T23:11:23.685Z,11.23
2023-01-23T23:13:52.216Z,11.20
2023-01-23T23:16:23.123Z,11.02
2023-01-23T23:18:53.139Z,11.25
2023-01-23T23:21:23.617Z,12.38
2023-01-23T23:23:52.186Z,10.68
2023-01-23T23:26:20.854Z,11.15
2023-01-23T23:28:49.317Z,10.88
2023-01-23T23:31:17.389Z,11.35
2023-01-23T23:33:46.857Z,10.55
2023-01-23T23:36:16.890Z,12.00
2023-01-23T23:38:46.028Z,10.80
2023-01-23T23:41:16.188Z,11.00
2023-01-23T23:43:45.012Z,11.13
2023-01-23T23:46:14.477Z,11.18
2023-01-23T23:48:43.707Z,11.80
2023-01-23T23:51:15.433Z,11.77
2023-01-23T23:53:43.669Z,11.20
2023-01-23T23:56:19.666Z,12.00
2023-01-23T23:58:47.669Z,12.27
